Airfield :
LOGIN :

Register | Disclaimer

   EN    FR    IT 

 










Legend :    VFR   Marginal VFR   IFR   Intensive IFR   Very Intensive IFR
Visi :
Ceiling :
>= 8 km
>= 3000ft
5 to 8 km
1000 to 3000 ft
1500m to 5 km
500 to 1000 ft
800 to 1500m
200 to 500 ft
< 800m
< 200 ft
Symbols :   Thunderstorms  Fog  Heavy snow  Heavy precipitations  Wind > 20 kt
SIGMETs :     Misc.  Thunderstorms  Icing  Turbulence  Mountain Waves  Volcanic Ashes







- Airport Elevation : 299 ft
- IATA code : EDM
- Download approach charts


LFRI - La Roche Sur Yon - Les Ajoncs

CURRENT METAR :
  • 250100Z AUTO 34006KT 9999 BKN007 17/17 Q1014

EXPIRED METARs :
  • 250030Z AUTO 35005KT 9999 BKN008 BKN170 17/17 Q1015
  • 250000Z AUTO 33005KT 9999 FEW009 SCT170 18/17 Q1015
  • 242330Z AUTO 34005KT CAVOK 18/17 Q1015
  • 242300Z AUTO 01006KT 9999 FEW008 BKN120 18/17 Q1014
  • 242230Z AUTO 02010KT 9999 FEW009 BKN120 19/18 Q1014

TAF TAF LFRI
Valid from the 24 at 18:00 until the 25 at 18:00 UTC


241700Z 2418/2518 36010KT CAVOK
PROB40
TEMPO 2500/2503 BKN010
BECMG 2503/2505 VRB03KT
BECMG 2509/2512 SCT040
BECMG 2515/2518 34010KT
No reported NOTAMs for that airfield.
1 SIGMET reported for the Brest FIR (LFRR) :
 
Embedded thunderstorms and hail
LFRR SIGMET 8 VALID 242300/250300 LFPW
LFRR BREST FIR/UIR EMBD TSGR FCST WI N5000 W00215 - N5000 W00200 - N5000 W00015 - N4830 W00015 - N4830 W00145 - N5000 W00215 TOP FL380 MOV NE 20KT NC=



MET'MAP, your aeronautical weather chart ! - Copyright ORBIFLY December 2007 - Disclaimer

ORBIFLY MET'MAP TEAM :

Programming & Development : Alexandra Zaïnal
Concept & Development : Baudouin d'Aumeries
Co-Development & Prog : Marc-Olivier Méhu
Technical & hardware support : Manuel Goepfert

Contact : metmap@orbifly.com




SOURCES & CREDITS :

   NOAA